createdAt,value
2023-05-10T00:02:10.262Z,5.47
2023-05-10T00:04:36.985Z,3.78
2023-05-10T00:07:03.662Z,5.63
2023-05-10T00:09:30.454Z,7.75
2023-05-10T00:11:59.393Z,9.35
2023-05-10T00:14:26.189Z,4.82
2023-05-10T00:16:53.045Z,3.75
2023-05-10T00:19:19.908Z,8.35
2023-05-10T00:21:46.615Z,5.03
2023-05-10T00:24:13.301Z,4.07
2023-05-10T00:26:39.991Z,5.13
2023-05-10T00:29:06.730Z,6.13
2023-05-10T00:31:33.426Z,2.60
2023-05-10T00:34:00.163Z,5.03
2023-05-10T00:36:27.063Z,5.57
2023-05-10T00:38:53.749Z,3.85
2023-05-10T00:41:22.050Z,5.53
2023-05-10T00:43:49.323Z,4.97
2023-05-10T00:46:16.348Z,8.82
2023-05-10T00:48:43.632Z,3.63
2023-05-10T00:51:10.403Z,7.70
2023-05-10T00:53:37.126Z,6.28
2023-05-10T00:56:04.717Z,14.55
2023-05-10T00:58:31.960Z,5.10
2023-05-10T01:00:58.766Z,6.82
2023-05-10T01:03:26.435Z,6.47
2023-05-10T01:05:53.166Z,5.68
2023-05-10T01:08:19.889Z,5.35
2023-05-10T01:10:46.669Z,8.63
2023-05-10T01:13:13.613Z,13.73
2023-05-10T01:15:40.721Z,8.45
2023-05-10T01:18:07.471Z,9.80
2023-05-10T01:20:39.040Z,9.18
2023-05-10T01:23:18.554Z,7.95
2023-05-10T01:26:16.377Z,7.13
2023-05-10T01:28:58.391Z,10.27
2023-05-10T01:31:48.205Z,5.70
2023-05-10T01:34:18.049Z,6.85
2023-05-10T01:36:51.732Z,9.60
2023-05-10T01:39:27.228Z,7.82
2023-05-10T01:41:56.961Z,8.18
2023-05-10T01:44:36.971Z,9.25
2023-05-10T01:47:26.477Z,8.50
2023-05-10T01:49:56.845Z,5.40
2023-05-10T01:52:33.451Z,7.35
2023-05-10T01:55:06.057Z,6.35
2023-05-10T01:57:36.945Z,5.50
2023-05-10T02:00:05.311Z,8.32
2023-05-10T02:02:34.465Z,9.82
2023-05-10T02:05:01.217Z,11.00
2023-05-10T02:07:29.004Z,8.73
2023-05-10T02:09:55.666Z,6.10
2023-05-10T02:12:22.514Z,10.32
2023-05-10T02:14:49.177Z,8.57
2023-05-10T02:17:15.870Z,7.43
2023-05-10T02:19:43.034Z,7.93
2023-05-10T02:22:10.109Z,10.38
2023-05-10T02:24:37.113Z,6.43
2023-05-10T02:27:04.631Z,6.30
2023-05-10T02:29:31.345Z,14.70
2023-05-10T02:31:58.163Z,9.90
2023-05-10T02:34:26.271Z,10.23
2023-05-10T02:36:53.323Z,11.75
2023-05-10T02:39:23.406Z,6.65
2023-05-10T02:41:50.425Z,13.10
2023-05-10T02:44:19.497Z,7.18
2023-05-10T02:46:46.230Z,7.22
2023-05-10T02:49:12.941Z,6.40
2023-05-10T02:51:43.215Z,10.50
2023-05-10T02:54:16.626Z,7.43
2023-05-10T02:56:45.750Z,13.60
2023-05-10T02:59:12.425Z,7.82
2023-05-10T03:01:39.464Z,5.50
2023-05-10T03:04:07.248Z,7.80
2023-05-10T03:06:34.001Z,8.95
2023-05-10T03:09:00.799Z,12.63
2023-05-10T03:11:43.281Z,9.52
2023-05-10T03:14:24.882Z,10.02
2023-05-10T03:17:03.447Z,11.40
2023-05-10T03:19:46.601Z,8.07
2023-05-10T03:22:13.366Z,8.68
2023-05-10T03:24:40.924Z,12.10
2023-05-10T03:27:07.594Z,7.78
2023-05-10T03:29:34.268Z,9.48
2023-05-10T03:32:01.224Z,8.70
2023-05-10T03:34:27.904Z,8.40
2023-05-10T03:36:54.618Z,11.13
2023-05-10T03:39:22.266Z,9.57
2023-05-10T03:41:51.965Z,10.60
2023-05-10T03:44:18.643Z,10.38
2023-05-10T03:46:45.690Z,10.80
2023-05-10T03:49:12.937Z,9.60
2023-05-10T03:51:39.665Z,7.32
2023-05-10T03:54:06.366Z,10.32
2023-05-10T03:56:33.544Z,8.57
2023-05-10T03:59:00.377Z,7.40
2023-05-10T04:01:27.079Z,9.15
2023-05-10T04:03:54.349Z,13.13
2023-05-10T04:06:21.150Z,10.77
2023-05-10T04:08:47.886Z,7.55
2023-05-10T04:11:15.117Z,10.13
2023-05-10T04:13:42.163Z,10.52
2023-05-10T04:16:08.829Z,9.93
2023-05-10T04:18:35.794Z,9.40
2023-05-10T04:21:02.479Z,7.20
2023-05-10T04:23:29.280Z,18.13
2023-05-10T04:26:02.685Z,14.07
2023-05-10T04:28:29.483Z,19.20
2023-05-10T04:31:05.993Z,17.25
2023-05-10T04:33:32.981Z,25.60
2023-05-10T04:35:59.777Z,14.50
2023-05-10T04:38:26.691Z,15.43
2023-05-10T04:40:53.933Z,15.18
2023-05-10T04:43:21.136Z,9.77
2023-05-10T04:45:47.807Z,11.45
2023-05-10T04:48:14.486Z,16.27
2023-05-10T04:50:41.328Z,12.40
2023-05-10T04:53:08.055Z,15.80
2023-05-10T04:55:34.809Z,17.20
2023-05-10T04:58:01.629Z,15.60
2023-05-10T05:00:28.360Z,20.70
2023-05-10T05:02:55.080Z,17.60
2023-05-10T05:05:21.929Z,11.70
2023-05-10T05:07:48.578Z,18.70
2023-05-10T05:10:15.420Z,15.95
2023-05-10T05:12:42.462Z,14.98
2023-05-10T05:15:10.684Z,16.75
2023-05-10T05:17:37.490Z,15.80
2023-05-10T05:20:04.804Z,19.50
2023-05-10T05:22:31.498Z,14.95
2023-05-10T05:24:59.134Z,15.95
2023-05-10T05:27:27.246Z,23.48
2023-05-10T05:29:57.446Z,17.55
2023-05-10T05:32:24.558Z,13.68
2023-05-10T05:34:51.633Z,19.58
2023-05-10T05:37:19.366Z,17.95
2023-05-10T05:39:46.321Z,21.63
2023-05-10T05:42:13.304Z,20.55
2023-05-10T05:44:40.330Z,17.42
2023-05-10T05:47:07.118Z,17.23
2023-05-10T05:49:33.999Z,15.48
2023-05-10T05:52:04.495Z,17.40
2023-05-10T05:54:31.680Z,15.38
2023-05-10T05:57:00.957Z,15.93
2023-05-10T05:59:28.236Z,17.50
2023-05-10T06:01:55.481Z,24.48
2023-05-10T06:04:22.267Z,18.10
2023-05-10T06:06:49.040Z,24.27
2023-05-10T06:09:15.843Z,23.52
2023-05-10T06:11:42.666Z,24.88
2023-05-10T06:14:09.379Z,17.40
2023-05-10T06:16:36.210Z,17.08
2023-05-10T06:19:03.536Z,21.23
2023-05-10T06:21:30.985Z,20.00
2023-05-10T06:23:57.996Z,17.65
2023-05-10T06:26:24.862Z,19.13
2023-05-10T06:28:51.636Z,15.32
2023-05-10T06:31:18.763Z,16.08
2023-05-10T06:33:45.685Z,21.45
2023-05-10T06:36:14.114Z,14.75
2023-05-10T06:38:40.820Z,15.88
2023-05-10T06:41:07.596Z,12.05
2023-05-10T06:43:34.283Z,22.02
2023-05-10T06:46:01.033Z,15.13
2023-05-10T06:48:27.769Z,13.48
2023-05-10T06:50:54.499Z,17.30
2023-05-10T06:53:21.306Z,16.98
2023-05-10T06:55:49.223Z,18.83
2023-05-10T06:58:15.987Z,12.80
2023-05-10T07:00:44.699Z,19.83
2023-05-10T07:03:11.811Z,13.35
2023-05-10T07:05:38.865Z,17.77
2023-05-10T07:08:05.662Z,15.43
2023-05-10T07:10:32.352Z,17.23
2023-05-10T07:12:59.164Z,14.55
2023-05-10T07:15:26.026Z,16.30
2023-05-10T07:17:53.213Z,15.88
2023-05-10T07:20:20.156Z,13.55
2023-05-10T07:22:46.894Z,13.65
2023-05-10T07:25:14.915Z,12.23
2023-05-10T07:27:41.754Z,14.40
2023-05-10T07:30:09.177Z,23.10
2023-05-10T07:32:35.941Z,20.13
2023-05-10T07:35:02.936Z,13.18
2023-05-10T07:37:29.675Z,15.75
2023-05-10T07:39:57.088Z,14.00
2023-05-10T07:42:23.996Z,16.98
2023-05-10T07:44:50.907Z,14.95
2023-05-10T07:47:17.605Z,14.88
2023-05-10T07:49:44.562Z,14.38
2023-05-10T07:52:12.033Z,10.07
2023-05-10T07:54:39.002Z,21.17
2023-05-10T07:57:05.825Z,16.52
2023-05-10T07:59:33.192Z,14.43
2023-05-10T08:01:59.957Z,23.30
2023-05-10T08:04:26.774Z,12.13
2023-05-10T08:06:53.504Z,18.67
2023-05-10T08:09:24.662Z,14.25
2023-05-10T08:11:51.731Z,12.38
2023-05-10T08:14:18.598Z,20.33
2023-05-10T08:16:45.390Z,26.80
2023-05-10T08:19:12.072Z,11.82
2023-05-10T08:21:39.066Z,11.88
2023-05-10T08:24:06.211Z,9.20
2023-05-10T08:26:33.573Z,12.82
2023-05-10T08:29:00.338Z,16.67
2023-05-10T08:31:27.080Z,19.55
2023-05-10T08:33:53.800Z,12.80
2023-05-10T08:36:22.606Z,11.35
2023-05-10T08:38:52.089Z,18.20
2023-05-10T08:41:21.984Z,14.65
2023-05-10T08:43:48.817Z,10.50
2023-05-10T08:46:18.395Z,14.00
2023-05-10T08:48:48.471Z,17.17
2023-05-10T08:51:17.461Z,11.23
2023-05-10T08:53:44.694Z,19.73
2023-05-10T08:56:11.444Z,10.30
2023-05-10T08:58:38.670Z,13.65
2023-05-10T09:01:06.294Z,16.45
2023-05-10T09:03:33.683Z,15.82
2023-05-10T09:06:00.456Z,13.95
2023-05-10T09:08:27.489Z,14.23
2023-05-10T09:10:55.315Z,22.13
2023-05-10T09:13:22.725Z,11.85
2023-05-10T09:15:49.471Z,21.15
2023-05-10T09:18:16.325Z,18.30
2023-05-10T09:20:43.207Z,14.70
2023-05-10T09:23:10.120Z,10.77
2023-05-10T09:25:38.088Z,14.13
2023-05-10T09:28:07.031Z,8.15
2023-05-10T09:30:33.812Z,16.50
2023-05-10T09:33:01.125Z,11.15
2023-05-10T09:35:29.771Z,8.90
2023-05-10T09:38:01.913Z,11.55
2023-05-10T09:40:29.337Z,10.43
2023-05-10T09:43:02.646Z,11.32
2023-05-10T09:45:32.479Z,12.75
2023-05-10T09:48:00.116Z,13.13
2023-05-10T09:50:27.601Z,10.65
2023-05-10T09:53:00.921Z,12.82
2023-05-10T09:55:41.643Z,7.50
2023-05-10T09:58:11.467Z,10.45
2023-05-10T10:00:42.416Z,10.63
2023-05-10T10:03:16.670Z,13.40
2023-05-10T10:05:44.520Z,9.80
2023-05-10T10:08:11.773Z,13.70
2023-05-10T10:10:39.736Z,11.15
2023-05-10T10:13:06.413Z,8.93
2023-05-10T10:15:34.167Z,9.48
2023-05-10T10:18:01.255Z,11.70
2023-05-10T10:20:28.895Z,11.18
2023-05-10T10:22:55.758Z,8.60
2023-05-10T10:25:25.617Z,11.15
2023-05-10T10:27:52.297Z,12.30
2023-05-10T10:30:40.934Z,9.77
2023-05-10T10:33:27.299Z,8.15
2023-05-10T10:35:55.176Z,8.52
2023-05-10T10:38:21.927Z,11.05
2023-05-10T10:40:48.918Z,6.95
2023-05-10T10:43:28.514Z,8.52
2023-05-10T10:46:14.291Z,10.50
2023-05-10T10:48:52.633Z,16.40
2023-05-10T10:51:19.320Z,9.35
2023-05-10T10:53:45.984Z,8.93
2023-05-10T10:56:14.764Z,8.40
2023-05-10T10:58:41.594Z,6.60
2023-05-10T11:01:15.228Z,11.68
2023-05-10T11:06:09.205Z,9.35
2023-05-10T11:08:44.200Z,10.00
2023-05-10T11:11:11.111Z,13.77
2023-05-10T11:13:41.950Z,11.07
2023-05-10T11:16:21.107Z,6.47
2023-05-10T11:19:03.040Z,9.18
2023-05-10T11:21:33.787Z,10.13
2023-05-10T11:24:01.317Z,13.50
2023-05-10T11:26:35.708Z,7.95
2023-05-10T11:29:02.892Z,8.63
2023-05-10T11:31:29.911Z,11.38
2023-05-10T11:33:58.304Z,8.70
2023-05-10T11:36:30.306Z,11.63
2023-05-10T11:38:57.406Z,7.78
2023-05-10T11:41:24.900Z,6.07
2023-05-10T11:43:52.491Z,5.30
2023-05-10T11:46:23.770Z,4.05
2023-05-10T11:48:52.052Z,6.15
2023-05-10T11:51:22.791Z,9.05
2023-05-10T11:53:51.314Z,5.68
2023-05-10T11:56:18.140Z,13.02
2023-05-10T11:58:45.106Z,8.80
2023-05-10T12:01:11.787Z,5.53
2023-05-10T12:03:38.705Z,6.82
2023-05-10T12:06:05.804Z,6.40
2023-05-10T12:08:32.531Z,8.40
2023-05-10T12:11:09.528Z,4.70
2023-05-10T12:13:43.569Z,6.82
2023-05-10T12:16:28.405Z,5.93
2023-05-10T12:18:57.563Z,7.78
2023-05-10T12:21:24.581Z,7.25
2023-05-10T12:23:52.367Z,7.05
2023-05-10T12:26:19.171Z,6.35
2023-05-10T12:28:45.875Z,7.97
2023-05-10T12:31:12.676Z,6.47
2023-05-10T12:33:46.279Z,12.35
2023-05-10T12:38:44.521Z,8.88
2023-05-10T12:41:15.505Z,5.65
2023-05-10T12:43:42.389Z,5.90
2023-05-10T12:46:10.185Z,7.57
2023-05-10T12:48:37.688Z,14.65
2023-05-10T12:51:04.792Z,6.90
2023-05-10T12:53:31.739Z,6.97
2023-05-10T12:55:58.431Z,10.88
2023-05-10T12:58:35.033Z,5.53
2023-05-10T13:01:03.076Z,6.78
2023-05-10T13:03:29.915Z,6.10
2023-05-10T13:05:56.712Z,9.48
2023-05-10T13:08:23.465Z,7.43
2023-05-10T13:10:50.364Z,8.35
2023-05-10T13:13:17.084Z,5.15
2023-05-10T13:15:43.832Z,4.93
2023-05-10T13:18:10.790Z,5.30
2023-05-10T13:20:37.702Z,6.97
2023-05-10T13:23:04.439Z,13.68
2023-05-10T13:25:31.739Z,9.35
2023-05-10T13:27:58.607Z,11.57
2023-05-10T13:30:25.266Z,7.78
2023-05-10T13:32:51.981Z,14.88
2023-05-10T13:35:18.794Z,12.15
2023-05-10T13:37:45.563Z,9.50
2023-05-10T13:40:12.582Z,4.93
2023-05-10T13:42:39.345Z,6.75
2023-05-10T13:45:07.214Z,7.32
2023-05-10T13:47:33.972Z,9.35
2023-05-10T13:50:00.676Z,5.93
2023-05-10T13:52:27.609Z,7.32
2023-05-10T13:54:56.217Z,9.02
2023-05-10T13:57:24.069Z,12.70
2023-05-10T13:59:51.240Z,13.43
2023-05-10T14:02:18.142Z,8.38
2023-05-10T14:04:44.824Z,8.50
2023-05-10T14:07:11.649Z,5.82
2023-05-10T14:09:38.316Z,11.73
2023-05-10T14:12:05.105Z,5.55
2023-05-10T14:14:31.867Z,6.32
2023-05-10T14:16:58.649Z,16.63
2023-05-10T14:19:25.562Z,12.85
2023-05-10T14:21:53.002Z,9.18
2023-05-10T14:24:19.731Z,10.93
2023-05-10T14:26:46.537Z,7.22
2023-05-10T14:29:13.351Z,7.22
2023-05-10T14:31:40.988Z,12.45
2023-05-10T14:34:07.903Z,12.90
2023-05-10T14:36:34.661Z,6.00
2023-05-10T14:39:01.385Z,8.60
2023-05-10T14:41:28.099Z,8.02
2023-05-10T14:43:54.841Z,8.25
2023-05-10T14:46:21.911Z,9.52
2023-05-10T14:48:48.883Z,10.68
2023-05-10T14:51:15.585Z,9.75
2023-05-10T14:53:42.603Z,4.82
2023-05-10T14:56:09.340Z,10.73
2023-05-10T14:58:36.380Z,6.70
2023-05-10T15:01:03.269Z,3.28
2023-05-10T15:03:30.633Z,4.03
2023-05-10T15:05:58.825Z,5.63
2023-05-10T15:08:25.731Z,4.43
2023-05-10T15:10:52.665Z,4.40
2023-05-10T15:13:19.395Z,4.47
2023-05-10T15:15:46.091Z,3.80
2023-05-10T15:18:12.888Z,4.85
2023-05-10T15:20:39.603Z,6.00
2023-05-10T15:23:06.421Z,7.32
2023-05-10T15:25:37.851Z,6.10
2023-05-10T15:28:05.187Z,6.20
2023-05-10T15:30:31.964Z,6.97
2023-05-10T15:32:58.913Z,4.10
2023-05-10T15:35:27.115Z,6.50
2023-05-10T15:37:53.845Z,3.40
2023-05-10T15:40:23.848Z,5.72
2023-05-10T15:42:50.581Z,4.10
2023-05-10T15:45:17.595Z,3.53
2023-05-10T15:47:45.152Z,7.90
2023-05-10T15:50:12.576Z,6.28
2023-05-10T15:52:39.262Z,3.33
2023-05-10T15:55:12.666Z,7.68
2023-05-10T15:57:41.422Z,4.78
2023-05-10T16:00:11.851Z,8.80
2023-05-10T16:02:39.768Z,9.25
2023-05-10T16:05:06.872Z,12.55
2023-05-10T16:08:00.295Z,4.18
2023-05-10T16:10:27.128Z,3.88
2023-05-10T16:12:54.972Z,5.20
2023-05-10T16:15:22.575Z,3.75
2023-05-10T16:17:49.532Z,6.20
2023-05-10T16:20:16.558Z,12.30
2023-05-10T16:22:44.386Z,3.83
2023-05-10T16:25:13.237Z,6.55
2023-05-10T16:27:40.482Z,8.88
2023-05-10T16:30:07.640Z,6.28
2023-05-10T16:32:35.072Z,4.72
2023-05-10T16:35:01.928Z,3.97
2023-05-10T16:37:28.574Z,3.40
2023-05-10T16:39:55.339Z,5.32
2023-05-10T16:42:23.931Z,4.35
2023-05-10T16:44:50.824Z,9.00
2023-05-10T16:47:17.852Z,4.53
2023-05-10T16:49:44.531Z,10.10
2023-05-10T16:52:11.249Z,4.20
2023-05-10T16:54:37.922Z,8.02
2023-05-10T16:57:04.822Z,7.80
2023-05-10T16:59:31.573Z,14.73
2023-05-10T17:01:58.376Z,6.72
2023-05-10T17:04:25.094Z,3.97
2023-05-10T17:06:51.801Z,5.40
2023-05-10T17:09:20.199Z,7.55
2023-05-10T17:11:47.120Z,6.90
2023-05-10T17:14:13.868Z,7.45
2023-05-10T17:16:41.269Z,8.98
2023-05-10T17:19:09.048Z,6.15
2023-05-10T17:21:35.976Z,6.07
2023-05-10T17:24:02.701Z,6.45
2023-05-10T17:26:30.106Z,9.82
2023-05-10T17:28:57.634Z,7.97
2023-05-10T17:31:24.492Z,11.02
2023-05-10T17:33:51.259Z,6.43
2023-05-10T17:36:17.926Z,7.00
2023-05-10T17:38:44.679Z,8.63
2023-05-10T17:41:11.350Z,9.95
2023-05-10T17:43:38.082Z,10.40
2023-05-10T17:46:04.963Z,10.07
2023-05-10T17:48:31.727Z,5.55
2023-05-10T17:50:58.486Z,5.57
2023-05-10T17:53:25.239Z,3.90
2023-05-10T17:55:52.106Z,4.88
2023-05-10T17:58:18.757Z,7.88
2023-05-10T18:00:46.370Z,9.07
2023-05-10T18:03:13.226Z,10.48
2023-05-10T18:05:40.044Z,7.70
2023-05-10T18:08:07.539Z,12.55
2023-05-10T18:10:34.249Z,7.20
2023-05-10T18:13:02.490Z,7.05
2023-05-10T18:15:29.298Z,6.90
2023-05-10T18:17:56.898Z,6.93
2023-05-10T18:20:23.806Z,9.30
2023-05-10T18:22:50.637Z,6.63
2023-05-10T18:25:17.833Z,5.70
2023-05-10T18:27:44.844Z,6.13
2023-05-10T18:30:12.509Z,8.48
2023-05-10T18:32:39.619Z,7.38
2023-05-10T18:35:07.681Z,5.05
2023-05-10T18:37:34.957Z,7.20
2023-05-10T18:40:01.761Z,8.35
2023-05-10T18:42:28.531Z,4.78
2023-05-10T18:44:55.828Z,9.32
2023-05-10T18:47:22.665Z,6.95
2023-05-10T18:49:49.435Z,10.80
2023-05-10T18:52:16.392Z,8.63
2023-05-10T18:54:44.158Z,6.15
2023-05-10T18:57:12.411Z,7.20
2023-05-10T18:59:39.125Z,6.80
2023-05-10T19:02:05.974Z,7.50
2023-05-10T19:04:32.697Z,7.15
2023-05-10T19:07:00.964Z,6.00
2023-05-10T19:09:27.832Z,12.68
2023-05-10T19:11:54.612Z,7.15
2023-05-10T19:14:21.594Z,7.18
2023-05-10T19:16:53.245Z,5.05
2023-05-10T19:19:20.918Z,7.03
2023-05-10T19:21:47.822Z,8.27
2023-05-10T19:24:14.797Z,3.55
2023-05-10T19:26:41.727Z,9.02
2023-05-10T19:29:08.439Z,7.03
2023-05-10T19:31:35.428Z,9.73
2023-05-10T19:34:03.578Z,4.10
2023-05-10T19:36:31.327Z,6.97
2023-05-10T19:38:58.134Z,12.65
2023-05-10T19:41:24.816Z,11.90
2023-05-10T19:43:52.122Z,7.45
2023-05-10T19:46:20.372Z,7.88
2023-05-10T19:48:47.290Z,6.75
2023-05-10T19:51:14.004Z,6.55
2023-05-10T19:53:44.622Z,8.38
2023-05-10T19:56:11.543Z,8.82
2023-05-10T19:58:38.662Z,5.80
2023-05-10T20:01:07.537Z,8.02
2023-05-10T20:03:35.358Z,6.85
2023-05-10T20:06:02.264Z,6.45
2023-05-10T20:08:29.235Z,6.68
2023-05-10T20:10:59.014Z,6.32
2023-05-10T20:13:25.958Z,9.18
2023-05-10T20:15:56.311Z,4.50
2023-05-10T20:18:23.325Z,4.72
2023-05-10T20:20:54.864Z,6.85
2023-05-10T20:23:21.924Z,8.75
2023-05-10T20:25:48.860Z,5.10
2023-05-10T20:28:15.913Z,8.48
2023-05-10T20:30:42.675Z,9.07
2023-05-10T20:33:09.787Z,9.52
2023-05-10T20:35:36.637Z,4.07
2023-05-10T20:38:04.106Z,4.57
2023-05-10T20:40:31.825Z,2.47
2023-05-10T20:42:58.739Z,2.88
2023-05-10T20:45:25.454Z,1.83
2023-05-10T20:47:52.367Z,2.35
2023-05-10T20:50:19.453Z,3.30
2023-05-10T20:52:46.305Z,2.40
2023-05-10T20:55:12.971Z,3.28
2023-05-10T20:57:39.742Z,2.40
2023-05-10T21:00:07.224Z,6.75
2023-05-10T21:02:33.939Z,4.10
2023-05-10T21:05:00.883Z,4.00
2023-05-10T21:07:27.723Z,6.50
2023-05-10T21:09:54.392Z,4.75
2023-05-10T21:12:21.172Z,3.30
2023-05-10T21:14:47.918Z,3.70
2023-05-10T21:17:14.811Z,5.53
2023-05-10T21:19:41.627Z,4.40
2023-05-10T21:22:08.301Z,3.13
2023-05-10T21:24:35.238Z,2.78
2023-05-10T21:27:02.823Z,5.78
2023-05-10T21:29:29.563Z,5.70
2023-05-10T21:31:56.448Z,4.68
2023-05-10T21:34:23.144Z,5.07
2023-05-10T21:36:49.857Z,5.40
2023-05-10T21:39:16.721Z,3.13
2023-05-10T21:41:43.397Z,4.68
2023-05-10T21:44:11.348Z,6.22
2023-05-10T21:46:38.089Z,5.40
2023-05-10T21:49:05.043Z,4.22
2023-05-10T21:51:31.749Z,8.13
2023-05-10T21:53:58.514Z,8.27
2023-05-10T21:56:25.335Z,8.35
2023-05-10T21:58:52.232Z,13.25
2023-05-10T22:01:19.223Z,5.97
2023-05-10T22:03:46.354Z,8.15
2023-05-10T22:06:13.103Z,6.68
2023-05-10T22:08:39.809Z,8.77
2023-05-10T22:11:06.559Z,7.85
2023-05-10T22:13:33.233Z,6.88
2023-05-10T22:16:00.035Z,8.13
2023-05-10T22:18:27.195Z,9.93
2023-05-10T22:20:53.950Z,5.97
2023-05-10T22:23:20.668Z,8.13
2023-05-10T22:25:47.706Z,8.02
2023-05-10T22:28:14.390Z,7.35
2023-05-10T22:30:42.597Z,6.00
2023-05-10T22:33:09.366Z,10.85
2023-05-10T22:35:36.068Z,6.60
2023-05-10T22:38:03.226Z,9.50
2023-05-10T22:40:29.924Z,5.90
2023-05-10T22:42:56.886Z,8.23
2023-05-10T22:45:23.684Z,5.03
2023-05-10T22:47:50.407Z,5.85
2023-05-10T22:50:17.295Z,9.10
2023-05-10T22:52:44.259Z,5.10
2023-05-10T22:55:11.138Z,8.23
2023-05-10T22:57:37.993Z,6.70
2023-05-10T23:00:06.332Z,10.00
2023-05-10T23:02:33.212Z,5.80
2023-05-10T23:05:00.038Z,10.02
2023-05-10T23:07:26.927Z,8.70
2023-05-10T23:09:53.666Z,7.47
2023-05-10T23:12:20.563Z,5.47
2023-05-10T23:14:47.943Z,6.80
2023-05-10T23:17:14.690Z,3.33
2023-05-10T23:19:41.726Z,6.03
2023-05-10T23:22:08.759Z,3.72
2023-05-10T23:24:36.102Z,4.00
2023-05-10T23:27:03.847Z,3.97
2023-05-10T23:29:32.006Z,7.10
2023-05-10T23:31:58.905Z,3.85
2023-05-10T23:34:25.592Z,8.38
2023-05-10T23:36:55.663Z,7.47
2023-05-10T23:39:22.376Z,2.70
2023-05-10T23:41:49.547Z,7.72
2023-05-10T23:44:16.638Z,7.38
2023-05-10T23:46:43.410Z,4.75
2023-05-10T23:49:10.072Z,3.97
2023-05-10T23:51:36.731Z,5.03
2023-05-10T23:54:03.482Z,4.85
2023-05-10T23:56:30.138Z,9.00
2023-05-10T23:58:57.033Z,5.45
